This is the latest recevied weather packets stored in our database for station/object AG1T-1. If no packets are shown the sender has not sent any weather packets the latest 10 day(s).
| Time | Temp. | Humidity | Pressure | Rain* | Wind** | Luminosity | Snow |
|---|---|---|---|---|---|---|---|
| 1777708803 | 5.56° C | 68% | 1024.3 hPa | 0 mm | - | 0 W/m² | - |
| 1777708203 | 6.11° C | 67% | 1024.3 hPa | 0 mm | - | 0 W/m² | - |
| 1777707603 | 6.11° C | 64% | 1024.2 hPa | 0 mm | - | 0 W/m² | - |
| 1777707003 | 6.67° C | 62% | 1024.2 hPa | 0 mm | - | 0 W/m² | - |
| 1777706403 | 7.22° C | 60% | 1024.1 hPa | 0 mm | - | 0 W/m² | - |
| 1777705803 | 7.78° C | 58% | 1024.2 hPa | 0 mm | - | 0 W/m² | - |
| 1777705203 | 7.78° C | 54% | 1024.2 hPa | 0 mm | - | 0 W/m² | - |
| 1777704603 | 8.33° C | 53% | 1024.2 hPa | 0 mm | - | 0 W/m² | - |
| 1777704003 | 8.89° C | 49% | 1024 hPa | 0 mm | - | 0 W/m² | - |
| 1777703403 | 8.89° C | 48% | 1023.9 hPa | 0 mm | - | 0 W/m² | - |
| 1777702803 | 8.89° C | 48% | 1023.8 hPa | 0 mm | - | 0 W/m² | - |
| 1777702203 | 9.44° C | 49% | 1023.7 hPa | 0 mm | - | 0 W/m² | - |
| 1777701603 | 9.44° C | 49% | 1023.7 hPa | 0 mm | - | 0 W/m² | - |
| 1777701003 | 9.44° C | 49% | 1023.5 hPa | 0 mm | - | 0 W/m² | - |
| 1777700403 | 9.44° C | 50% | 1023.6 hPa | 0 mm | - | 0 W/m² | - |
| 1777699803 | 10° C | 50% | 1023.5 hPa | 0 mm | - | 0 W/m² | - |
| 1777699203 | 10° C | 48% | 1023.4 hPa | 0 mm | - | 0 W/m² | - |
| 1777698603 | 10° C | 49% | 1023.4 hPa | 0 mm | - | 0 W/m² | - |
| 1777698003 | 10° C | 51% | 1023.4 hPa | 0 mm | - | 0 W/m² | - |
| 1777697403 | 9.44° C | 55% | 1023.5 hPa | 0 mm | - | 0 W/m² | - |
| 1777696803 | 9.44° C | 56% | 1023.5 hPa | 0 mm | - | 0 W/m² | - |
| 1777696203 | 9.44° C | 56% | 1023.5 hPa | 0 mm | - | 0 W/m² | - |
| 1777695603 | 10° C | 55% | 1023.4 hPa | 0 mm | - | 0 W/m² | - |
| 1777695003 | 11.11° C | 52% | 1023.3 hPa | 0 mm | - | 0 W/m² | - |
| 1777694403 | 11.11° C | 51% | 1023.3 hPa | 0 mm | - | 0 W/m² | - |
* Rain latest hour (hover to see other rain measurements)
** Current wind speed in m/s (hover to see current wind gust speed)